sensor_id;sensor_type;location;lat;lon;timestamp;pressure;altitude;pressure_sealevel;temperature;humidity
5883;BME280;2967;51.488;6.618;2023-03-18T00:00:16;100544.34;;;13.46;100.00
5883;BME280;2967;51.488;6.618;2023-03-18T00:05:19;100538.31;;;13.44;100.00
5883;BME280;2967;51.488;6.618;2023-03-18T00:10:22;100532.56;;;13.39;100.00
5883;BME280;2967;51.488;6.618;2023-03-18T00:15:27;100530.97;;;13.36;100.00
5883;BME280;2967;51.488;6.618;2023-03-18T00:20:29;100527.63;;;13.23;100.00
5883;BME280;2967;51.488;6.618;2023-03-18T00:25:40;100504.69;;;13.01;100.00
5883;BME280;2967;51.488;6.618;2023-03-18T00:30:46;100516.84;;;12.92;100.00
5883;BME280;2967;51.488;6.618;2023-03-18T00:35:53;100558.28;;;13.17;100.00
5883;BME280;2967;51.488;6.618;2023-03-18T00:40:55;100551.41;;;13.14;100.00
5883;BME280;2967;51.488;6.618;2023-03-18T00:46:06;100508.75;;;12.83;100.00
5883;BME280;2967;51.488;6.618;2023-03-18T00:51:08;100545.00;;;13.06;100.00
5883;BME280;2967;51.488;6.618;2023-03-18T00:56:15;100386.41;;;12.09;100.00
5883;BME280;2967;51.488;6.618;2023-03-18T01:01:20;100268.16;;;11.51;100.00
5883;BME280;2967;51.488;6.618;2023-03-18T01:06:27;100543.94;;;13.08;100.00
5883;BME280;2967;51.488;6.618;2023-03-18T01:11:30;100500.22;;;12.79;100.00
5883;BME280;2967;51.488;6.618;2023-03-18T01:16:35;100553.44;;;13.00;100.00
5883;BME280;2967;51.488;6.618;2023-03-18T01:21:38;100475.09;;;12.50;100.00
5883;BME280;2967;51.488;6.618;2023-03-18T01:26:40;100563.97;;;13.01;100.00
5883;BME280;2967;51.488;6.618;2023-03-18T01:31:44;100478.09;;;12.35;100.00
5883;BME280;2967;51.488;6.618;2023-03-18T01:36:50;100518.63;;;12.59;100.00
5883;BME280;2967;51.488;6.618;2023-03-18T01:41:54;100563.16;;;12.77;100.00
5883;BME280;2967;51.488;6.618;2023-03-18T01:47:04;100554.72;;;12.83;100.00
5883;BME280;2967;51.488;6.618;2023-03-18T01:52:18;100570.06;;;12.91;100.00
5883;BME280;2967;51.488;6.618;2023-03-18T01:57:22;100574.25;;;12.60;100.00
5883;BME280;2967;51.488;6.618;2023-03-18T02:02:27;100551.81;;;12.64;100.00
5883;BME280;2967;51.488;6.618;2023-03-18T02:07:34;100552.53;;;12.66;100.00
5883;BME280;2967;51.488;6.618;2023-03-18T02:12:40;100561.25;;;12.68;100.00
5883;BME280;2967;51.488;6.618;2023-03-18T02:17:52;100548.44;;;12.62;100.00
5883;BME280;2967;51.488;6.618;2023-03-18T02:23:01;100556.63;;;12.59;100.00
5883;BME280;2967;51.488;6.618;2023-03-18T02:28:09;100482.44;;;12.01;100.00
5883;BME280;2967;51.488;6.618;2023-03-18T02:33:15;100564.94;;;12.55;100.00
5883;BME280;2967;51.488;6.618;2023-03-18T02:38:20;100536.91;;;12.40;100.00
5883;BME280;2967;51.488;6.618;2023-03-18T02:43:26;100569.63;;;12.51;100.00
5883;BME280;2967;51.488;6.618;2023-03-18T02:48:35;100551.41;;;12.47;100.00
5883;BME280;2967;51.488;6.618;2023-03-18T02:53:39;100562.91;;;12.58;100.00
5883;BME280;2967;51.488;6.618;2023-03-18T02:58:44;100552.75;;;12.52;100.00
5883;BME280;2967;51.488;6.618;2023-03-18T03:03:49;100573.00;;;12.53;100.00
5883;BME280;2967;51.488;6.618;2023-03-18T03:08:54;100555.72;;;12.37;100.00
5883;BME280;2967;51.488;6.618;2023-03-18T03:14:00;100513.69;;;12.09;100.00
5883;BME280;2967;51.488;6.618;2023-03-18T03:19:05;100574.03;;;12.40;100.00
5883;BME280;2967;51.488;6.618;2023-03-18T03:24:10;100583.44;;;12.33;100.00
5883;BME280;2967;51.488;6.618;2023-03-18T03:29:16;100590.03;;;12.27;100.00
5883;BME280;2967;51.488;6.618;2023-03-18T03:34:18;100589.19;;;12.27;100.00
5883;BME280;2967;51.488;6.618;2023-03-18T03:39:21;100605.84;;;12.29;100.00
5883;BME280;2967;51.488;6.618;2023-03-18T03:44:28;100549.34;;;12.05;100.00
5883;BME280;2967;51.488;6.618;2023-03-18T03:49:31;100601.53;;;12.39;100.00
5883;BME280;2967;51.488;6.618;2023-03-18T03:54:34;100491.69;;;11.61;100.00
5883;BME280;2967;51.488;6.618;2023-03-18T03:59:39;100612.16;;;12.39;100.00
5883;BME280;2967;51.488;6.618;2023-03-18T04:04:48;100613.00;;;12.39;100.00
5883;BME280;2967;51.488;6.618;2023-03-18T04:09:58;100620.00;;;12.40;100.00
5883;BME280;2967;51.488;6.618;2023-03-18T04:15:07;100618.31;;;12.39;100.00
5883;BME280;2967;51.488;6.618;2023-03-18T04:20:11;100626.66;;;12.46;100.00
5883;BME280;2967;51.488;6.618;2023-03-18T04:25:14;100534.81;;;11.87;100.00
5883;BME280;2967;51.488;6.618;2023-03-18T04:30:18;100633.88;;;12.44;100.00
5883;BME280;2967;51.488;6.618;2023-03-18T04:35:36;100616.34;;;12.30;100.00
5883;BME280;2967;51.488;6.618;2023-03-18T04:40:39;100562.94;;;12.00;100.00
5883;BME280;2967;51.488;6.618;2023-03-18T04:45:44;100651.84;;;12.40;100.00
5883;BME280;2967;51.488;6.618;2023-03-18T04:50:50;100621.59;;;12.19;100.00
5883;BME280;2967;51.488;6.618;2023-03-18T04:55:58;100636.06;;;12.26;100.00
5883;BME280;2967;51.488;6.618;2023-03-18T05:01:11;100591.72;;;11.94;100.00
5883;BME280;2967;51.488;6.618;2023-03-18T05:06:20;100514.81;;;11.47;100.00
5883;BME280;2967;51.488;6.618;2023-03-18T05:11:39;100612.56;;;11.98;100.00
5883;BME280;2967;51.488;6.618;2023-03-18T05:16:52;100565.84;;;11.61;100.00
5883;BME280;2967;51.488;6.618;2023-03-18T05:21:55;100637.31;;;12.10;100.00
5883;BME280;2967;51.488;6.618;2023-03-18T05:26:59;100664.41;;;12.26;100.00
5883;BME280;2967;51.488;6.618;2023-03-18T05:32:14;100662.41;;;12.29;100.00
5883;BME280;2967;51.488;6.618;2023-03-18T05:37:19;100652.00;;;12.26;100.00
5883;BME280;2967;51.488;6.618;2023-03-18T05:42:32;100671.81;;;12.33;100.00
5883;BME280;2967;51.488;6.618;2023-03-18T05:47:48;100678.66;;;12.25;100.00
5883;BME280;2967;51.488;6.618;2023-03-18T05:52:55;100654.81;;;12.12;100.00
5883;BME280;2967;51.488;6.618;2023-03-18T05:58:00;100679.72;;;12.22;100.00
5883;BME280;2967;51.488;6.618;2023-03-18T06:03:07;100671.97;;;12.19;100.00
5883;BME280;2967;51.488;6.618;2023-03-18T06:08:10;100589.13;;;11.69;100.00
5883;BME280;2967;51.488;6.618;2023-03-18T06:13:13;100691.09;;;12.35;100.00
5883;BME280;2967;51.488;6.618;2023-03-18T06:18:18;100696.69;;;12.43;100.00
5883;BME280;2967;51.488;6.618;2023-03-18T06:23:22;100703.94;;;12.41;100.00
5883;BME280;2967;51.488;6.618;2023-03-18T06:28:25;100676.66;;;12.16;100.00
5883;BME280;2967;51.488;6.618;2023-03-18T06:33:36;100686.69;;;12.23;100.00
5883;BME280;2967;51.488;6.618;2023-03-18T06:38:41;100690.94;;;12.26;100.00
5883;BME280;2967;51.488;6.618;2023-03-18T06:43:44;100689.41;;;12.34;100.00
5883;BME280;2967;51.488;6.618;2023-03-18T06:48:54;100679.19;;;12.41;100.00
5883;BME280;2967;51.488;6.618;2023-03-18T06:54:03;100717.91;;;12.67;100.00
5883;BME280;2967;51.488;6.618;2023-03-18T06:59:07;100720.56;;;12.67;100.00
5883;BME280;2967;51.488;6.618;2023-03-18T07:04:13;100690.00;;;12.50;100.00
5883;BME280;2967;51.488;6.618;2023-03-18T07:09:15;100695.28;;;12.50;100.00
5883;BME280;2967;51.488;6.618;2023-03-18T07:14:24;100715.16;;;12.45;100.00
5883;BME280;2967;51.488;6.618;2023-03-18T07:19:33;100739.38;;;12.64;100.00
5883;BME280;2967;51.488;6.618;2023-03-18T07:24:38;100693.03;;;12.33;100.00
5883;BME280;2967;51.488;6.618;2023-03-18T07:29:41;100656.41;;;12.15;100.00
5883;BME280;2967;51.488;6.618;2023-03-18T07:34:45;100750.25;;;12.72;100.00
5883;BME280;2967;51.488;6.618;2023-03-18T07:39:48;100744.41;;;12.79;100.00
5883;BME280;2967;51.488;6.618;2023-03-18T07:44:53;100752.03;;;12.84;100.00
5883;BME280;2967;51.488;6.618;2023-03-18T07:49:58;100753.78;;;12.72;100.00
5883;BME280;2967;51.488;6.618;2023-03-18T07:55:02;100760.78;;;12.97;100.00
5883;BME280;2967;51.488;6.618;2023-03-18T08:00:09;100732.34;;;12.86;100.00
5883;BME280;2967;51.488;6.618;2023-03-18T08:05:17;100766.03;;;13.09;100.00
5883;BME280;2967;51.488;6.618;2023-03-18T08:16:18;100706.03;;;12.83;100.00
5883;BME280;2967;51.488;6.618;2023-03-18T08:21:25;100793.94;;;13.49;100.00
5883;BME280;2967;51.488;6.618;2023-03-18T08:26:27;100796.59;;;13.60;100.00
5883;BME280;2967;51.488;6.618;2023-03-18T08:31:30;100730.22;;;13.25;100.00
5883;BME280;2967;51.488;6.618;2023-03-18T08:36:35;100610.84;;;12.44;100.00
5883;BME280;2967;51.488;6.618;2023-03-18T08:41:38;100799.53;;;13.68;100.00
5883;BME280;2967;51.488;6.618;2023-03-18T08:46:49;100816.81;;;13.73;100.00
5883;BME280;2967;51.488;6.618;2023-03-18T08:51:53;100814.88;;;13.75;100.00
5883;BME280;2967;51.488;6.618;2023-03-18T08:56:57;100736.78;;;13.43;100.00
5883;BME280;2967;51.488;6.618;2023-03-18T09:02:01;100819.13;;;13.78;100.00
5883;BME280;2967;51.488;6.618;2023-03-18T09:07:08;100804.97;;;13.88;100.00
5883;BME280;2967;51.488;6.618;2023-03-18T09:12:11;100785.03;;;13.94;100.00
5883;BME280;2967;51.488;6.618;2023-03-18T09:17:14;100788.81;;;14.24;100.00
5883;BME280;2967;51.488;6.618;2023-03-18T09:22:18;100834.97;;;14.67;100.00
5883;BME280;2967;51.488;6.618;2023-03-18T09:27:22;100836.25;;;14.84;100.00
5883;BME280;2967;51.488;6.618;2023-03-18T09:32:25;100835.72;;;15.01;100.00
5883;BME280;2967;51.488;6.618;2023-03-18T09:37:29;100809.81;;;15.03;100.00
5883;BME280;2967;51.488;6.618;2023-03-18T09:42:51;100828.81;;;14.98;100.00
5883;BME280;2967;51.488;6.618;2023-03-18T09:48:07;100790.75;;;14.76;100.00
5883;BME280;2967;51.488;6.618;2023-03-18T09:53:19;100841.44;;;14.96;100.00
5883;BME280;2967;51.488;6.618;2023-03-18T09:58:28;100818.66;;;14.92;100.00
5883;BME280;2967;51.488;6.618;2023-03-18T10:03:36;100822.03;;;15.05;100.00
5883;BME280;2967;51.488;6.618;2023-03-18T10:08:50;100766.44;;;14.69;100.00
5883;BME280;2967;51.488;6.618;2023-03-18T10:19:25;100829.06;;;15.27;100.00
5883;BME280;2967;51.488;6.618;2023-03-18T10:24:35;100825.06;;;15.32;100.00
5883;BME280;2967;51.488;6.618;2023-03-18T10:29:40;100827.63;;;15.34;100.00
5883;BME280;2967;51.488;6.618;2023-03-18T10:35:01;100793.50;;;15.17;100.00
5883;BME280;2967;51.488;6.618;2023-03-18T10:40:13;100830.34;;;15.43;100.00
5883;BME280;2967;51.488;6.618;2023-03-18T10:45:22;100822.94;;;15.47;100.00
5883;BME280;2967;51.488;6.618;2023-03-18T10:50:30;100744.78;;;15.05;100.00
5883;BME280;2967;51.488;6.618;2023-03-18T10:55:52;100816.19;;;15.63;100.00
5883;BME280;2967;51.488;6.618;2023-03-18T11:00:58;100806.38;;;15.84;100.00
5883;BME280;2967;51.488;6.618;2023-03-18T11:06:02;100804.63;;;16.03;100.00
5883;BME280;2967;51.488;6.618;2023-03-18T11:11:26;100789.47;;;16.04;100.00
5883;BME280;2967;51.488;6.618;2023-03-18T11:16:36;100791.09;;;16.25;100.00
5883;BME280;2967;51.488;6.618;2023-03-18T11:21:40;100793.56;;;16.38;100.00
5883;BME280;2967;51.488;6.618;2023-03-18T11:26:48;100804.59;;;16.63;100.00
5883;BME280;2967;51.488;6.618;2023-03-18T11:31:55;100803.91;;;16.71;100.00
5883;BME280;2967;51.488;6.618;2023-03-18T11:37:01;100791.13;;;16.74;99.34
5883;BME280;2967;51.488;6.618;2023-03-18T11:42:17;100812.84;;;17.09;99.25
5883;BME280;2967;51.488;6.618;2023-03-18T11:47:24;100728.53;;;16.67;98.23
5883;BME280;2967;51.488;6.618;2023-03-18T11:52:38;100809.75;;;17.14;99.67
5883;BME280;2967;51.488;6.618;2023-03-18T11:58:11;100723.63;;;16.72;96.89
5883;BME280;2967;51.488;6.618;2023-03-18T12:04:06;100809.59;;;17.34;97.84
5883;BME280;2967;51.488;6.618;2023-03-18T12:09:18;100807.19;;;17.31;96.64
5883;BME280;2967;51.488;6.618;2023-03-18T12:14:30;100772.84;;;17.17;97.46
5883;BME280;2967;51.488;6.618;2023-03-18T12:25:36;100777.09;;;17.29;96.71
5883;BME280;2967;51.488;6.618;2023-03-18T12:37:00;100793.34;;;17.83;96.13
5883;BME280;2967;51.488;6.618;2023-03-18T12:42:09;100774.13;;;18.07;91.91
5883;BME280;2967;51.488;6.618;2023-03-18T12:47:17;100714.44;;;17.87;92.59
5883;BME280;2967;51.488;6.618;2023-03-18T12:52:28;100739.88;;;18.01;93.01
5883;BME280;2967;51.488;6.618;2023-03-18T12:57:39;100733.91;;;17.80;91.76
5883;BME280;2967;51.488;6.618;2023-03-18T13:02:48;100747.72;;;17.85;91.62
5883;BME280;2967;51.488;6.618;2023-03-18T13:08:23;100772.81;;;17.84;92.04
5883;BME280;2967;51.488;6.618;2023-03-18T13:13:31;100514.75;;;16.12;92.60
5883;BME280;2967;51.488;6.618;2023-03-18T13:18:38;100633.22;;;16.77;93.39
5883;BME280;2967;51.488;6.618;2023-03-18T13:24:04;100756.81;;;17.27;92.17
5883;BME280;2967;51.488;6.618;2023-03-18T13:29:21;100382.03;;;15.00;93.34
5883;BME280;2967;51.488;6.618;2023-03-18T13:34:51;100662.75;;;16.66;92.61
5883;BME280;2967;51.488;6.618;2023-03-18T13:40:12;100766.09;;;17.32;92.71
5883;BME280;2967;51.488;6.618;2023-03-18T13:45:23;100767.50;;;17.55;93.97
5883;BME280;2967;51.488;6.618;2023-03-18T13:50:32;100681.56;;;17.03;93.85
5883;BME280;2967;51.488;6.618;2023-03-18T13:55:45;100726.59;;;17.17;93.89
5883;BME280;2967;51.488;6.618;2023-03-18T14:01:14;100789.63;;;17.00;95.92
5883;BME280;2967;51.488;6.618;2023-03-18T14:06:45;100794.34;;;16.68;100.00
5883;BME280;2967;51.488;6.618;2023-03-18T14:11:51;100634.72;;;15.55;96.65
5883;BME280;2967;51.488;6.618;2023-03-18T14:16:55;100775.00;;;16.36;98.55
5883;BME280;2967;51.488;6.618;2023-03-18T14:22:05;100601.44;;;15.50;100.00
5883;BME280;2967;51.488;6.618;2023-03-18T14:27:15;100546.97;;;15.22;100.00
5883;BME280;2967;51.488;6.618;2023-03-18T14:32:35;100719.50;;;16.40;100.00
5883;BME280;2967;51.488;6.618;2023-03-18T14:37:55;100588.75;;;15.82;100.00
5883;BME280;2967;51.488;6.618;2023-03-18T14:43:12;100409.09;;;14.66;100.00
5883;BME280;2967;51.488;6.618;2023-03-18T14:48:22;100593.44;;;15.98;100.00
5883;BME280;2967;51.488;6.618;2023-03-18T14:53:33;100669.25;;;16.64;100.00
5883;BME280;2967;51.488;6.618;2023-03-18T14:58:38;100759.34;;;17.47;100.00
5883;BME280;2967;51.488;6.618;2023-03-18T15:03:51;100538.38;;;16.07;100.00
5883;BME280;2967;51.488;6.618;2023-03-18T15:08:57;100670.19;;;17.10;100.00
5883;BME280;2967;51.488;6.618;2023-03-18T15:14:11;100762.72;;;17.59;100.00
5883;BME280;2967;51.488;6.618;2023-03-18T15:19:18;100716.97;;;17.43;100.00
5883;BME280;2967;51.488;6.618;2023-03-18T15:24:26;100601.56;;;16.92;100.00
5883;BME280;2967;51.488;6.618;2023-03-18T15:29:32;100718.81;;;17.33;100.00
5883;BME280;2967;51.488;6.618;2023-03-18T15:34:40;100678.34;;;16.90;100.00
5883;BME280;2967;51.488;6.618;2023-03-18T15:39:45;100746.25;;;17.25;100.00
5883;BME280;2967;51.488;6.618;2023-03-18T15:44:55;100585.56;;;16.25;100.00
5883;BME280;2967;51.488;6.618;2023-03-18T15:50:13;100668.09;;;16.66;100.00
5883;BME280;2967;51.488;6.618;2023-03-18T15:55:25;100661.34;;;16.53;100.00
5883;BME280;2967;51.488;6.618;2023-03-18T16:00:32;100727.84;;;16.84;100.00
5883;BME280;2967;51.488;6.618;2023-03-18T16:05:39;100707.06;;;16.59;100.00
5883;BME280;2967;51.488;6.618;2023-03-18T16:10:41;100646.09;;;16.15;100.00
5883;BME280;2967;51.488;6.618;2023-03-18T16:15:46;100733.03;;;16.57;100.00
5883;BME280;2967;51.488;6.618;2023-03-18T16:20:49;100712.16;;;16.32;100.00
5883;BME280;2967;51.488;6.618;2023-03-18T16:25:54;100745.38;;;16.49;100.00
5883;BME280;2967;51.488;6.618;2023-03-18T16:30:59;100743.00;;;16.55;100.00
5883;BME280;2967;51.488;6.618;2023-03-18T16:36:04;100629.28;;;15.66;100.00
5883;BME280;2967;51.488;6.618;2023-03-18T16:41:07;100725.34;;;16.15;100.00
5883;BME280;2967;51.488;6.618;2023-03-18T16:46:12;100753.03;;;16.23;100.00
5883;BME280;2967;51.488;6.618;2023-03-18T16:51:20;100708.56;;;15.94;100.00
5883;BME280;2967;51.488;6.618;2023-03-18T16:56:26;100731.81;;;15.92;100.00
5883;BME280;2967;51.488;6.618;2023-03-18T17:01:30;100757.13;;;15.97;100.00
5883;BME280;2967;51.488;6.618;2023-03-18T17:06:34;100750.19;;;15.86;100.00
5883;BME280;2967;51.488;6.618;2023-03-18T17:11:38;100757.47;;;15.74;100.00
5883;BME280;2967;51.488;6.618;2023-03-18T17:16:43;100740.06;;;15.50;100.00
5883;BME280;2967;51.488;6.618;2023-03-18T17:21:49;100757.59;;;15.52;100.00
5883;BME280;2967;51.488;6.618;2023-03-18T17:26:55;100681.88;;;14.93;100.00
5883;BME280;2967;51.488;6.618;2023-03-18T17:32:03;100710.25;;;15.04;100.00
5883;BME280;2967;51.488;6.618;2023-03-18T17:37:14;100736.63;;;15.07;100.00
5883;BME280;2967;51.488;6.618;2023-03-18T17:42:27;100777.50;;;15.17;100.00
5883;BME280;2967;51.488;6.618;2023-03-18T17:47:32;100677.09;;;14.45;100.00
5883;BME280;2967;51.488;6.618;2023-03-18T17:52:38;100760.16;;;15.02;100.00
5883;BME280;2967;51.488;6.618;2023-03-18T17:57:44;100767.44;;;15.00;100.00
5883;BME280;2967;51.488;6.618;2023-03-18T18:02:50;100670.63;;;14.27;100.00
5883;BME280;2967;51.488;6.618;2023-03-18T18:07:55;100683.44;;;14.33;100.00
5883;BME280;2967;51.488;6.618;2023-03-18T18:13:05;100559.81;;;13.52;100.00
5883;BME280;2967;51.488;6.618;2023-03-18T18:18:25;100731.31;;;14.44;100.00
5883;BME280;2967;51.488;6.618;2023-03-18T18:23:31;100744.72;;;14.42;100.00
5883;BME280;2967;51.488;6.618;2023-03-18T18:28:35;100595.09;;;13.43;100.00
5883;BME280;2967;51.488;6.618;2023-03-18T18:33:45;100531.38;;;12.99;100.00
5883;BME280;2967;51.488;6.618;2023-03-18T18:38:54;100661.50;;;13.76;100.00
5883;BME280;2967;51.488;6.618;2023-03-18T18:44:04;100793.03;;;14.49;100.00
5883;BME280;2967;51.488;6.618;2023-03-18T18:49:18;100767.25;;;14.16;100.00
5883;BME280;2967;51.488;6.618;2023-03-18T18:54:25;100798.72;;;14.33;100.00
5883;BME280;2967;51.488;6.618;2023-03-18T18:59:32;100802.22;;;14.23;100.00
5883;BME280;2967;51.488;6.618;2023-03-18T19:04:44;100806.94;;;14.19;100.00
5883;BME280;2967;51.488;6.618;2023-03-18T19:10:06;100784.06;;;14.06;100.00
5883;BME280;2967;51.488;6.618;2023-03-18T19:15:16;100801.94;;;14.15;100.00
5883;BME280;2967;51.488;6.618;2023-03-18T19:20:27;100759.03;;;13.86;100.00
5883;BME280;2967;51.488;6.618;2023-03-18T19:25:32;100824.91;;;14.05;100.00
5883;BME280;2967;51.488;6.618;2023-03-18T19:30:36;100721.56;;;13.45;100.00
5883;BME280;2967;51.488;6.618;2023-03-18T19:35:46;100647.22;;;13.00;100.00
5883;BME280;2967;51.488;6.618;2023-03-18T19:40:49;100782.63;;;13.80;100.00
5883;BME280;2967;51.488;6.618;2023-03-18T19:45:56;100826.97;;;14.01;100.00
5883;BME280;2967;51.488;6.618;2023-03-18T19:51:01;100695.19;;;13.20;100.00
5883;BME280;2967;51.488;6.618;2023-03-18T19:56:06;100556.59;;;12.48;100.00
5883;BME280;2967;51.488;6.618;2023-03-18T20:01:11;100695.53;;;13.16;100.00
5883;BME280;2967;51.488;6.618;2023-03-18T20:06:17;100758.59;;;13.36;100.00
5883;BME280;2967;51.488;6.618;2023-03-18T20:11:23;100745.44;;;13.23;100.00
5883;BME280;2967;51.488;6.618;2023-03-18T20:16:29;100787.81;;;13.36;100.00
5883;BME280;2967;51.488;6.618;2023-03-18T20:21:34;100704.25;;;12.84;100.00
5883;BME280;2967;51.488;6.618;2023-03-18T20:26:38;100598.19;;;12.13;100.00
5883;BME280;2967;51.488;6.618;2023-03-18T20:31:43;100725.84;;;12.90;100.00
5883;BME280;2967;51.488;6.618;2023-03-18T20:36:47;100694.75;;;12.69;100.00
5883;BME280;2967;51.488;6.618;2023-03-18T20:41:50;100647.22;;;12.31;100.00
5883;BME280;2967;51.488;6.618;2023-03-18T20:46:55;100849.75;;;13.60;100.00
5883;BME280;2967;51.488;6.618;2023-03-18T20:52:19;100737.31;;;12.91;100.00
5883;BME280;2967;51.488;6.618;2023-03-18T20:57:26;100650.34;;;12.36;100.00
5883;BME280;2967;51.488;6.618;2023-03-18T21:02:37;100870.31;;;13.58;100.00
5883;BME280;2967;51.488;6.618;2023-03-18T21:07:42;100685.94;;;12.34;100.00
5883;BME280;2967;51.488;6.618;2023-03-18T21:12:52;100628.47;;;11.98;100.00
5883;BME280;2967;51.488;6.618;2023-03-18T21:17:56;100745.84;;;12.60;100.00
5883;BME280;2967;51.488;6.618;2023-03-18T21:23:03;100618.25;;;11.81;100.00
5883;BME280;2967;51.488;6.618;2023-03-18T21:28:08;100870.38;;;13.22;100.00
5883;BME280;2967;51.488;6.618;2023-03-18T21:33:36;100697.75;;;12.17;100.00
5883;BME280;2967;51.488;6.618;2023-03-18T21:39:05;100891.09;;;13.17;100.00
5883;BME280;2967;51.488;6.618;2023-03-18T21:44:09;100812.22;;;12.83;100.00
5883;BME280;2967;51.488;6.618;2023-03-18T21:49:19;100880.56;;;13.28;100.00
5883;BME280;2967;51.488;6.618;2023-03-18T21:54:23;100656.31;;;11.80;100.00
5883;BME280;2967;51.488;6.618;2023-03-18T21:59:30;100882.94;;;13.20;100.00
5883;BME280;2967;51.488;6.618;2023-03-18T22:04:34;100800.59;;;12.73;100.00
5883;BME280;2967;51.488;6.618;2023-03-18T22:09:39;100797.69;;;12.76;100.00
5883;BME280;2967;51.488;6.618;2023-03-18T22:14:45;100861.31;;;13.14;100.00
5883;BME280;2967;51.488;6.618;2023-03-18T22:19:48;100851.97;;;13.08;100.00
5883;BME280;2967;51.488;6.618;2023-03-18T22:24:54;100840.50;;;13.08;100.00
5883;BME280;2967;51.488;6.618;2023-03-18T22:30:00;100817.09;;;12.89;100.00
5883;BME280;2967;51.488;6.618;2023-03-18T22:35:05;100840.94;;;13.02;100.00
5883;BME280;2967;51.488;6.618;2023-03-18T22:40:20;100785.63;;;12.72;100.00
5883;BME280;2967;51.488;6.618;2023-03-18T22:45:27;100658.38;;;12.00;100.00
5883;BME280;2967;51.488;6.618;2023-03-18T22:50:36;100836.50;;;13.02;100.00
5883;BME280;2967;51.488;6.618;2023-03-18T22:55:40;100659.53;;;11.96;100.00
5883;BME280;2967;51.488;6.618;2023-03-18T23:00:44;100688.22;;;12.15;100.00
5883;BME280;2967;51.488;6.618;2023-03-18T23:05:52;100843.16;;;13.08;100.00
5883;BME280;2967;51.488;6.618;2023-03-18T23:11:04;100564.69;;;11.53;100.00
5883;BME280;2967;51.488;6.618;2023-03-18T23:16:13;100710.41;;;12.37;100.00
5883;BME280;2967;51.488;6.618;2023-03-18T23:21:20;100862.41;;;13.22;100.00
5883;BME280;2967;51.488;6.618;2023-03-18T23:26:26;100862.69;;;13.30;100.00
5883;BME280;2967;51.488;6.618;2023-03-18T23:31:34;100655.25;;;12.06;100.00
5883;BME280;2967;51.488;6.618;2023-03-18T23:36:46;100911.41;;;13.41;100.00
5883;BME280;2967;51.488;6.618;2023-03-18T23:41:51;100884.91;;;13.29;100.00
5883;BME280;2967;51.488;6.618;2023-03-18T23:46:58;100600.19;;;11.63;100.00
5883;BME280;2967;51.488;6.618;2023-03-18T23:52:05;100730.75;;;12.49;100.00
5883;BME280;2967;51.488;6.618;2023-03-18T23:57:12;100880.28;;;13.20;100.00
